ADDS METAR Data INFO
IDs: Format: Raw Decoded Include TAF

Data at: 2212 UTC 24 Jun 2018

KI19 242155Z AUTO 34004KT 10SM CLR 27/13 A2999 RMK AO2 T02730125
KI19 242135Z AUTO 36004KT 10SM CLR 27/12 A2999 RMK AO2 T02740119
KI19 242115Z AUTO 34004KT 10SM CLR 27/13 A2999 RMK AO2 T02730134
KI19 242055Z AUTO 33003KT 10SM SCT050 SCT065 27/15 A2998 RMK AO2 T02650146
KI19 242035Z AUTO 33003KT 10SM SCT055 SCT065 27/15 A2999 RMK AO2 T02730154
KI19 242015Z AUTO 35003KT 10SM CLR 26/15 A2999 RMK AO2 T02590154
KI19 241956Z AUTO 32003KT 10SM SCT055 SCT070 SCT085 27/16 A2999 RMK AO2 T02660163
KI19 241935Z AUTO 36005KT 10SM SCT055 BKN070 BKN080 26/16 A2999 RMK AO2 T02600164
KI19 241915Z AUTO 34006KT 10SM SCT044 SCT050 BKN075 27/17 A2999 RMK AO2 T02680166
KI19 241855Z AUTO 36003KT 10SM SCT043 BKN050 BKN075 27/16 A2998 RMK AO2 T02700163
KI19 241835Z AUTO 00000KT 10SM BKN055 BKN065 26/17 A2998 RMK AO2 T02570165
KI19 241815Z AUTO 00000KT 10SM SCT045 BKN055 BKN065 25/16 A2998 RMK AO2 T02510158
KI19 241755Z AUTO 00000KT 10SM SCT055 26/17 A2998 RMK AO2 T02610165 10261 20195
KI19 241735Z AUTO 33003KT 10SM BKN055 25/17 A2997 RMK AO2 T02520165
KI19 241715Z AUTO 00000KT 10SM SCT034 SCT041 BKN060 25/16 A2997 RMK AO2 T02520162
KI19 241655Z AUTO 28005KT 10SM SCT034 SCT039 SCT046 26/17 A2997 RMK AO2 T02560174
KI19 241635Z AUTO 32006KT 10SM SCT031 SCT043 BKN055 25/17 A2997 RMK AO2 T02490174
KI19 241615Z AUTO 27006KT 10SM SCT033 SCT047 SCT055 25/18 A2998 RMK AO2 T02520177
KI19 241555Z AUTO 27005KT 10SM SCT031 SCT039 BKN045 24/17 A2998 RMK AO2 T02410171
KI19 241535Z AUTO 26010KT 10SM SCT031 BKN039 BKN046 25/17 A2997 RMK AO2 T02460172
KI19 241515Z AUTO 28004KT 10SM SCT027 SCT032 SCT041 24/18 A2997 RMK AO2 T02410176
KI19 241455Z AUTO 28006KT 240V330 10SM SCT027 SCT032 SCT037 24/17 A2996 RMK AO2 T02400174
KI19 241435Z AUTO 27003KT 10SM SCT023 SCT028 SCT037 24/18 A2995 RMK AO2 T02350175
KI19 241415Z AUTO 33004KT 10SM SCT021 SCT027 23/18 A2995 RMK AO2 T02290175
KI19 241355Z AUTO 32004KT 10SM SCT021 23/18 A2995 RMK AO2 T02280177
KI19 241335Z AUTO 28004KT 10SM CLR 22/17 A2994 RMK AO2 T02240173
KI19 241315Z AUTO 33005KT 10SM CLR 22/18 A2993 RMK AO2 T02200176
KI19 241255Z AUTO 30004KT 10SM CLR 22/18 A2993 RMK AO2 T02150178
KI19 241235Z AUTO 00000KT 10SM CLR 21/18 A2992 RMK AO2 T02070183
KI19 241215Z AUTO 00000KT 10SM CLR 20/18 A2992 RMK AO2 T02010183
KI19 241155Z AUTO 00000KT 10SM CLR 20/18 A2993 RMK AO2 T01950182 10201 20180
KI19 241135Z AUTO 00000KT 7SM CLR 19/18 A2992 RMK AO2 T01900182
KI19 241115Z AUTO 00000KT 4SM BR CLR 19/18 A2992 RMK AO2 T01850178
KI19 241055Z AUTO 00000KT 4SM BR CLR 18/17 A2991 RMK AO2 T01810174
KI19 241035Z AUTO 00000KT 5SM BR CLR 18/18 A2991 RMK AO2 T01810175
KI19 241015Z AUTO 00000KT 5SM BR CLR 18/17 A2990 RMK AO2 T01810174
KI19 240955Z AUTO 00000KT 7SM CLR 18/18 A2990 RMK AO2 T01820175
KI19 240935Z AUTO 21003KT 7SM CLR 18/17 A2989 RMK AO2 T01810173
KI19 240915Z AUTO 20003KT 10SM CLR 19/18 A2988 RMK AO2 T01850175
KI19 240858Z AUTO 20004KT 10SM SCT080 19/18 A2988 RMK AO2 T01850175
KI19 240835Z AUTO 00000KT 10SM CLR 19/18 A2987 RMK AO2 T01890175
KI19 240815Z AUTO 20003KT 10SM BKN070 BKN080 19/18 A2987 RMK AO2 T01930177
KI19 240755Z AUTO 00000KT 10SM BKN070 20/18 A2987 RMK AO2 T01950179
KI19 240735Z AUTO 24003KT 10SM BKN055 BKN070 20/18 A2988 RMK AO2 T01950176
KI19 240716Z AUTO 24003KT 10SM OVC055 20/18 A2988 RMK AO2 T02000178
KI19 240655Z AUTO 23004KT 10SM BKN055 20/18 A2988 RMK AO2 T02000180
KI19 240635Z AUTO 21004KT 10SM SCT065 SCT120 19/18 A2987 RMK AO2 T01940175
KI19 240615Z AUTO 23003KT 10SM SCT055 SCT065 SCT120 20/18 A2988 RMK AO2 T02000176
KI19 240555Z AUTO 23004KT 10SM SCT055 OVC065 20/18 A2988 RMK AO2 T02000177 10232 20200 402540190
KI19 240535Z AUTO 23003KT 10SM SCT065 BKN080 20/18 A2987 RMK AO2 T02010176
KI19 240515Z AUTO 24004KT 10SM SCT060 BKN080 20/18 A2987 RMK AO2 T02040175
KI19 240455Z AUTO 24003KT 10SM SCT060 SCT070 OVC080 21/18 A2987 RMK AO2 T02060175
KI19 240435Z AUTO 26005KT 10SM SCT060 SCT070 OVC080 21/17 A2987 RMK AO2 T02100174
KI19 240415Z AUTO 25004KT 10SM OVC080 21/18 A2986 RMK AO2 T02060178
KI19 240355Z AUTO 25004KT 10SM BKN080 20/18 A2986 RMK AO2 T02040177
KI19 240335Z AUTO 26004KT 10SM SCT080 21/18 A2985 RMK AO2 T02080176
KI19 240315Z AUTO 26005KT 10SM CLR 21/18 A2985 RMK AO2 T02130175
KI19 240255Z AUTO 26004KT 10SM SCT080 21/18 A2985 RMK AO2 T02110176
KI19 240235Z AUTO 26003KT 10SM OVC070 22/18 A2985 RMK AO2 T02150176
KI19 240215Z AUTO 27005KT 10SM OVC070 22/17 A2985 RMK AO2 T02200173
KI19 240155Z AUTO 27005KT 10SM BKN070 22/17 A2985 RMK AO2 T02200172
KI19 240135Z AUTO 27003KT 10SM OVC070 22/17 A2984 RMK AO2 T02240172
KI19 240115Z AUTO 27004KT 10SM OVC070 23/17 A2984 RMK AO2 T02260170
KI19 240055Z AUTO 27006KT 10SM OVC070 23/17 A2984 RMK AO2 T02280170
KI19 240035Z AUTO 27007KT 10SM OVC070 23/17 A2984 RMK AO2 T02300171
KI19 240015Z AUTO 26008KT 10SM OVC070 23/17 A2983 RMK AO2 T02310170
KI19 232355Z AUTO 26006KT 10SM OVC070 23/17 A2983 RMK AO2 T02320171 10254 20225
KI19 232335Z AUTO 26006KT 10SM SCT050 OVC070 24/17 A2983 RMK AO2 T02350173
KI19 232315Z AUTO 26009G16KT 10SM SCT046 SCT055 OVC070 24/17 A2982 RMK AO2 T02350174
KI19 232255Z AUTO 27007KT 10SM OVC070 24/17 A2982 RMK AO2 T02400171
KI19 232235Z AUTO 26012KT 10SM OVC065 24/17 A2982 RMK AO2 T02360172
KI19 232215Z AUTO 25009KT 10SM SCT029 SCT034 OVC065 24/18 A2982 RMK AO2 T02400175
KI19 232155Z AUTO 25009KT 10SM SCT031 BKN038 OVC065 24/18 A2982 RMK AO2 T02400177
KI19 232135Z AUTO 24010G14KT 10SM SCT036 SCT050 OVC065 25/18 A2981 RMK AO2 T02450180
KI19 232115Z AUTO 24007KT 10SM SCT037 OVC065 24/18 A2981 RMK AO2 T02420179
KI19 232055Z AUTO 28005KT 10SM BKN065 25/17 A2981 RMK AO2 T02450172
KI19 232035Z AUTO 26010KT 10SM SCT029 SCT038 BKN065 25/18 A2981 RMK AO2 T02520180
KI19 232015Z AUTO 23010G15KT 10SM SCT031 SCT039 OVC065 24/18 A2981 RMK AO2 T02410178
KI19 231955Z AUTO 24012KT 10SM SCT029 OVC065 24/18 A2980 RMK AO2 T02420175
KI19 231935Z AUTO 25008KT 10SM OVC065 24/19 A2980 RMK AO2 T02400185
KI19 231915Z AUTO 26012G15KT 10SM SCT027 SCT034 OVC070 24/18 A2980 RMK AO2 T02370175
KI19 231855Z AUTO 24013G16KT 10SM BKN027 BKN033 OVC070 24/18 A2981 RMK AO2 T02400182
KI19 231835Z AUTO 23008KT 10SM SCT027 BKN040 OVC070 23/18 A2980 RMK AO2 T02310180
KI19 231815Z AUTO 25004KT 10SM SCT031 BKN038 OVC070 23/18 A2981 RMK AO2 T02270184
KI19 231755Z AUTO 28003KT 10SM SCT026 BKN039 OVC060 23/17 A2980 RMK AO2 T02310167 10243 20195
KI19 231735Z AUTO 26007KT 10SM BKN028 BKN055 OVC070 23/17 A2981 RMK AO2 T02330172
KI19 231715Z AUTO 27009KT 10SM SCT028 SCT033 OVC065 24/18 A2980 RMK AO2 T02410175
KI19 231655Z AUTO 25009KT 10SM SCT026 SCT033 BKN050 24/18 A2981 RMK AO2 T02350177
KI19 231635Z AUTO 26012G15KT 10SM BKN024 BKN033 BKN065 23/17 A2980 RMK AO2 T02340171
KI19 231615Z AUTO 25011KT 10SM SCT022 BKN060 23/18 A2981 RMK AO2 T02330179
KI19 231555Z AUTO 26010G14KT 10SM SCT018 SCT024 OVC060 22/18 A2981 RMK AO2 T02220177
KI19 231535Z AUTO 27008KT 10SM SCT016 BKN043 OVC060 21/18 A2981 RMK AO2 T02120177
KI19 231515Z AUTO 26008KT 10SM SCT019 SCT030 OVC060 21/18 A2981 RMK AO2 T02110176
KI19 231455Z AUTO 26009KT 10SM SCT019 SCT029 OVC060 22/18 A2980 RMK AO2 T02150177
KI19 231435Z AUTO 25009KT 10SM SCT018 BKN037 OVC050 22/17 A2979 RMK AO2 T02160174
KI19 231415Z AUTO 26009KT 10SM OVC038 21/18 A2980 RMK AO2 T02140176
KI19 231355Z AUTO 25010KT 10SM SCT013 OVC040 21/18 A2979 RMK AO2 T02110178
KI19 231335Z AUTO 24009KT 10SM SCT013 SCT023 BKN040 21/18 A2979 RMK AO2 T02120176
KI19 231315Z AUTO 25011KT 10SM SCT011 BKN020 BKN025 21/18 A2978 RMK AO2 T02080180
KI19 231255Z AUTO 25010KT 10SM SCT009 BKN016 BKN023 20/18 A2978 RMK AO2 T02020180
KI19 231235Z AUTO 23007KT 10SM SCT009 SCT018 BKN043 20/19 A2979 RMK AO2 LTG DSNT NE T02010185
KI19 231215Z AUTO 24008KT 10SM BKN012 BKN020 OVC041 20/18 A2978 RMK AO2 T01950180
KI19 231155Z AUTO 24007KT 10SM SCT010 BKN015 OVC040 20/18 A2978 RMK AO2 70004 T01950181 10200 20190
KI19 231135Z AUTO 24009KT 10SM SCT010 SCT013 OVC038 19/18 A2978 RMK AO2 T01930180
KI19 231115Z AUTO 24009KT 10SM BKN013 OVC034 19/18 A2977 RMK AO2 T01930180
KI19 231055Z AUTO 25007KT 10SM BKN013 OVC018 19/18 A2977 RMK AO2 T01930180
KI19 231035Z AUTO 24006KT 10SM SCT012 BKN018 OVC025 19/18 A2976 RMK AO2 T01920180
KI19 231015Z AUTO 22005KT 10SM SCT012 BKN018 19/18 A2975 RMK AO2 T01910180